Time;durP1;ratioP1;P1;durP2;ratioP2;P2;SDS_P1;SDS_P2;PMS_P1;PMS_P2;Temp;Humidity;BMP_temperature;BMP_pressure;BME280_temperature;BME280_humidity;BME280_pressure;Samples;Min_cycle;Max_cycle;Signal;HPM_P1;HPM_P2
2023/01/26 00:00:52;;;;;;;44.35;19.38;;;-0.30;99.90;;;;;;5048709;28;20017;-52
2023/01/26 00:03:18;;;;;;;46.70;20.38;;;-0.30;99.90;;;;;;5047310;28;20450;-52
2023/01/26 00:05:44;;;;;;;45.75;21.65;;;-0.40;99.90;;;;;;5048112;28;20131;-50
2023/01/26 00:08:11;;;;;;;44.25;18.45;;;-0.40;99.90;;;;;;5049019;28;20100;-52
2023/01/26 00:10:37;;;;;;;43.03;20.13;;;-0.40;99.90;;;;;;5049045;28;20017;-50
2023/01/26 00:13:03;;;;;;;45.70;21.33;;;-0.40;99.90;;;;;;5048792;28;20029;-49
2023/01/26 00:15:32;;;;;;;48.65;22.65;;;-0.50;99.90;;;;;;5047877;28;20017;-53
2023/01/26 00:17:58;;;;;;;53.28;21.80;;;-0.50;99.90;;;;;;5048174;28;20071;-51
2023/01/26 00:20:23;;;;;;;49.92;20.67;;;-0.50;99.90;;;;;;5048350;28;20022;-51
2023/01/26 00:22:49;;;;;;;48.30;21.13;;;-0.40;99.90;;;;;;5048718;28;20021;-52
2023/01/26 00:25:14;;;;;;;47.97;20.40;;;-0.50;99.90;;;;;;5049227;28;20021;-51
2023/01/26 00:27:40;;;;;;;48.70;20.98;;;-0.50;99.90;;;;;;5051111;28;20491;-49
2023/01/26 00:30:06;;;;;;;49.50;20.25;;;-0.50;99.90;;;;;;5052183;28;20075;-52
2023/01/26 00:32:34;;;;;;;50.17;20.05;;;-0.50;99.90;;;;;;5052119;28;20091;-50
2023/01/26 00:35:00;;;;;;;48.30;21.23;;;-0.50;99.90;;;;;;5051549;28;20088;-49
2023/01/26 00:37:25;;;;;;;61.00;23.58;;;-0.50;99.90;;;;;;5051912;28;20503;-49
2023/01/26 00:39:51;;;;;;;51.03;21.38;;;-0.60;99.90;;;;;;5050840;28;20099;-52
2023/01/26 00:42:16;;;;;;;55.60;23.05;;;-0.60;99.90;;;;;;5051864;28;20091;-53
2023/01/26 00:44:42;;;;;;;52.03;22.15;;;-0.60;99.90;;;;;;5051439;28;20414;-51
2023/01/26 00:47:10;;;;;;;54.15;23.00;;;-0.70;99.90;;;;;;5051832;28;20275;-49
2023/01/26 00:49:35;;;;;;;60.05;25.42;;;-0.70;99.90;;;;;;5051884;28;20060;-49
2023/01/26 00:52:02;;;;;;;62.88;23.75;;;-0.70;99.90;;;;;;5051984;28;20079;-48
2023/01/26 00:54:27;;;;;;;59.22;25.25;;;-0.60;99.90;;;;;;5052147;28;20078;-48
2023/01/26 00:56:53;;;;;;;71.18;25.63;;;-0.70;99.90;;;;;;5051384;28;20063;-51
2023/01/26 00:59:20;;;;;;;65.30;26.33;;;-0.60;99.90;;;;;;5051603;28;20505;-50
2023/01/26 01:01:46;;;;;;;65.05;25.58;;;-0.60;99.90;;;;;;5051683;28;20028;-49
2023/01/26 01:04:12;;;;;;;65.57;26.75;;;-0.70;99.90;;;;;;5051674;28;20025;-50
2023/01/26 01:06:38;;;;;;;66.55;27.13;;;-0.70;99.90;;;;;;5051711;28;20024;-50
2023/01/26 01:09:03;;;;;;;68.50;26.63;;;-0.70;99.90;;;;;;5051717;28;20051;-50
2023/01/26 01:11:29;;;;;;;58.88;23.73;;;-0.80;99.90;;;;;;5051585;28;20559;-50
2023/01/26 01:13:54;;;;;;;70.30;28.42;;;-0.70;99.90;;;;;;5051170;28;20078;-52
2023/01/26 01:16:20;;;;;;;68.70;27.15;;;-0.80;99.90;;;;;;5050311;28;20071;-52
2023/01/26 01:18:46;;;;;;;62.45;26.50;;;-0.80;99.90;;;;;;5051211;28;20021;-49
2023/01/26 01:21:14;;;;;;;66.55;26.08;;;-0.80;99.90;;;;;;5051487;28;20045;-48
2023/01/26 01:23:40;;;;;;;71.35;28.05;;;-0.70;99.90;;;;;;5051514;28;20017;-49
2023/01/26 01:26:07;;;;;;;69.18;27.27;;;-0.70;99.90;;;;;;5050685;28;20111;-50
2023/01/26 01:28:33;;;;;;;72.50;28.65;;;-0.80;99.90;;;;;;5051233;28;20413;-49
2023/01/26 01:31:02;;;;;;;69.75;28.15;;;-0.70;99.90;;;;;;5051032;28;20091;-49
2023/01/26 01:33:27;;;;;;;69.30;27.83;;;-0.70;99.90;;;;;;5051092;28;20032;-49
2023/01/26 01:36:01;;;;;;;63.17;27.73;;;-0.70;99.90;;;;;;5049908;28;20482;-50
2023/01/26 01:38:27;;;;;;;60.65;26.30;;;-0.70;99.90;;;;;;5051059;28;20059;-49
2023/01/26 01:40:53;;;;;;;59.72;26.13;;;-0.70;99.90;;;;;;5050771;28;20048;-50
2023/01/26 01:43:19;;;;;;;64.43;27.60;;;-0.70;99.90;;;;;;5051007;28;20291;-49
2023/01/26 01:45:46;;;;;;;59.38;25.40;;;-0.70;99.90;;;;;;5050383;28;20670;-48
2023/01/26 01:48:27;;;;;;;58.17;26.45;;;-0.70;99.90;;;;;;5050840;28;20132;-49
2023/01/26 01:50:57;;;;;;;58.55;26.08;;;-0.80;99.90;;;;;;5050640;28;20259;-48
2023/01/26 01:53:28;;;;;;;56.75;23.75;;;-0.80;99.90;;;;;;5050854;28;20029;-52
2023/01/26 01:55:58;;;;;;;60.60;24.77;;;-0.80;99.90;;;;;;5050520;28;20056;-52
2023/01/26 01:58:25;;;;;;;64.00;26.52;;;-0.90;99.90;;;;;;5050760;28;20078;-49
2023/01/26 02:00:51;;;;;;;64.40;25.50;;;-0.90;99.90;;;;;;5050778;28;20055;-49
2023/01/26 02:03:20;;;;;;;73.45;28.42;;;-0.90;99.90;;;;;;5050427;28;20028;-49
2023/01/26 02:06:34;;;;;;;67.78;27.15;;;-0.90;99.90;;;;;;5050319;28;20014;-51
2023/01/26 02:09:00;;;;;;;74.57;29.40;;;-0.90;99.90;;;;;;4968809;28;20035;-51
2023/01/26 02:11:43;;;;;;;76.95;28.60;;;-0.90;99.90;;;;;;5033436;28;20037;-50
2023/01/26 02:14:13;;;;;;;77.80;30.08;;;-0.90;99.90;;;;;;5050191;28;20017;-52
2023/01/26 02:16:38;;;;;;;72.40;31.15;;;-0.90;99.90;;;;;;5049756;28;20461;-50
2023/01/26 02:19:11;;;;;;;71.82;28.63;;;-1.00;99.90;;;;;;5050236;28;20020;-52
2023/01/26 02:21:38;;;;;;;75.28;31.40;;;-1.00;99.90;;;;;;5050047;28;20021;-52
2023/01/26 02:24:25;;;;;;;77.07;31.20;;;-1.00;99.90;;;;;;5049097;28;20028;-53
2023/01/26 02:26:53;;;;;;;81.32;30.63;;;-1.00;99.90;;;;;;5049611;28;20025;-49
2023/01/26 02:29:19;;;;;;;79.28;30.90;;;-0.90;99.90;;;;;;5049854;28;20029;-49
2023/01/26 02:31:45;;;;;;;82.53;31.17;;;-1.00;99.90;;;;;;5049822;28;20044;-51
2023/01/26 02:34:11;;;;;;;88.85;32.97;;;-1.00;99.90;;;;;;5050141;28;20025;-49
2023/01/26 02:36:36;;;;;;;86.93;31.88;;;-1.00;99.90;;;;;;5049482;28;20405;-49
2023/01/26 02:39:12;;;;;;;80.45;31.20;;;-1.00;99.90;;;;;;5049633;28;20382;-50
2023/01/26 02:44:24;;;;;;;92.28;32.45;;;-0.90;99.90;;;;;;5049906;28;20032;-53
2023/01/26 02:46:49;;;;;;;86.60;32.53;;;-1.00;99.90;;;;;;5048502;28;20060;-50
2023/01/26 02:51:59;;;;;;;87.50;33.50;;;-1.00;99.90;;;;;;5049708;28;20106;-49
2023/01/26 02:57:09;;;;;;;91.28;30.98;;;-1.00;99.90;;;;;;5049731;28;20543;-51
2023/01/26 02:59:34;;;;;;;87.50;33.13;;;-1.20;99.90;;;;;;5049817;28;20092;-50
2023/01/26 03:02:00;;;;;;;85.30;32.90;;;-1.20;99.90;;;;;;5049847;28;20013;-50
2023/01/26 03:04:26;;;;;;;81.22;32.47;;;-1.10;99.90;;;;;;5049972;28;20047;-50
2023/01/26 03:06:52;;;;;;;90.05;33.28;;;-1.20;99.90;;;;;;5047745;28;20039;-51
2023/01/26 03:09:17;;;;;;;76.93;30.83;;;-1.20;99.90;;;;;;5049545;28;20029;-49
2023/01/26 03:11:43;;;;;;;92.75;32.85;;;-1.20;99.90;;;;;;5048114;28;20033;-51
2023/01/26 03:14:10;;;;;;;88.10;30.85;;;-1.20;99.90;;;;;;5049589;28;20060;-48
2023/01/26 03:16:36;;;;;;;80.97;30.95;;;-1.20;99.90;;;;;;5048978;28;20039;-49
2023/01/26 03:29:42;;;;;;;76.90;30.17;;;-1.00;99.90;;;;;;5048932;28;20028;-49
2023/01/26 03:32:08;;;;;;;82.80;30.73;;;-1.00;99.90;;;;;;5048897;28;20025;-50
2023/01/26 03:34:33;;;;;;;89.45;32.45;;;-1.00;99.90;;;;;;5048532;28;20104;-49
2023/01/26 03:36:59;;;;;;;88.47;32.20;;;-1.00;99.90;;;;;;5047815;28;20017;-49
2023/01/26 03:58:50;;;;;;;67.93;26.00;;;-1.00;99.90;;;;;;5052352;28;20044;-48
2023/01/26 04:01:19;;;;;;;79.10;29.17;;;-1.10;99.90;;;;;;5055425;28;20036;-49
2023/01/26 04:09:15;;;;;;;83.45;30.85;;;-1.00;99.90;;;;;;5055593;28;20444;-49
2023/01/26 04:11:41;;;;;;;73.18;25.52;;;-1.00;99.90;;;;;;5055043;28;20033;-48
2023/01/26 04:22:23;;;;;;;73.93;28.02;;;-1.00;99.90;;;;;;5044058;28;20035;-50
2023/01/26 04:24:48;;;;;;;73.15;26.55;;;-1.00;99.90;;;;;;5037769;28;20142;-49
2023/01/26 04:27:14;;;;;;;66.40;25.65;;;-1.00;99.90;;;;;;5055039;28;20071;-49
2023/01/26 04:29:39;;;;;;;72.10;27.13;;;-0.90;99.90;;;;;;5054902;28;20021;-48
2023/01/26 04:32:05;;;;;;;71.65;26.42;;;-0.90;99.90;;;;;;5054704;28;20477;-48
2023/01/26 04:34:30;;;;;;;72.47;25.45;;;-0.90;99.90;;;;;;5054623;28;20033;-48
2023/01/26 04:36:56;;;;;;;81.35;26.52;;;-0.90;99.90;;;;;;5054518;28;20025;-46
2023/01/26 04:39:21;;;;;;;80.65;27.50;;;-0.90;99.90;;;;;;5054936;28;20091;-49
2023/01/26 04:41:47;;;;;;;76.18;28.48;;;-0.90;99.90;;;;;;5054851;28;20722;-51
2023/01/26 04:44:12;;;;;;;83.22;27.25;;;-0.90;99.90;;;;;;5045552;28;20044;-52
2023/01/26 04:46:38;;;;;;;76.38;27.95;;;-0.90;99.90;;;;;;5041298;28;20025;-49
2023/01/26 04:49:03;;;;;;;81.63;31.33;;;-0.90;99.90;;;;;;5043039;28;20029;-49
2023/01/26 04:51:29;;;;;;;84.95;28.33;;;-0.90;99.90;;;;;;5043793;28;20082;-51
2023/01/26 04:53:55;;;;;;;72.60;27.75;;;-0.90;99.90;;;;;;5044475;28;20039;-50
2023/01/26 04:56:26;;;;;;;74.57;26.90;;;-0.90;99.90;;;;;;5054413;28;20066;-50
2023/01/26 04:58:52;;;;;;;78.72;26.10;;;-0.80;99.90;;;;;;5054780;28;20464;-49
2023/01/26 05:01:18;;;;;;;80.38;29.38;;;-0.90;99.90;;;;;;5051881;28;20121;-50
2023/01/26 05:03:44;;;;;;;80.32;28.58;;;-0.90;99.90;;;;;;5054623;28;20068;-48
2023/01/26 05:06:10;;;;;;;68.75;27.25;;;-0.90;99.90;;;;;;5054191;28;20024;-48
2023/01/26 05:08:36;;;;;;;77.00;27.63;;;-0.90;99.90;;;;;;5053167;28;20044;-48
2023/01/26 05:11:02;;;;;;;81.20;29.42;;;-0.90;99.90;;;;;;5050131;28;20029;-48
2023/01/26 05:13:27;;;;;;;80.55;29.52;;;-0.90;99.90;;;;;;5041273;28;20037;-50
2023/01/26 05:15:53;;;;;;;80.40;28.45;;;-0.90;99.90;;;;;;5040065;28;20033;-48
2023/01/26 05:18:18;;;;;;;82.38;30.88;;;-0.90;99.90;;;;;;5041369;28;20017;-50
2023/01/26 05:20:44;;;;;;;80.82;27.90;;;-0.80;99.90;;;;;;5036089;28;20021;-48
2023/01/26 05:23:09;;;;;;;89.57;30.73;;;-0.80;99.90;;;;;;5034160;28;20475;-50
2023/01/26 05:25:35;;;;;;;86.55;28.83;;;-0.90;99.90;;;;;;5033599;28;20021;-50
2023/01/26 05:28:00;;;;;;;89.20;31.17;;;-0.90;99.90;;;;;;5038413;28;20055;-48
2023/01/26 05:30:26;;;;;;;95.90;31.45;;;-0.90;99.90;;;;;;5040688;28;20128;-47
2023/01/26 05:32:52;;;;;;;103.07;34.08;;;-1.00;99.90;;;;;;5039964;28;20032;-51
2023/01/26 05:35:17;;;;;;;92.88;32.45;;;-0.90;99.90;;;;;;5038403;28;20117;-49
2023/01/26 05:37:44;;;;;;;108.45;34.47;;;-0.90;99.90;;;;;;5040902;28;20028;-48
2023/01/26 05:40:10;;;;;;;104.18;35.20;;;-0.90;99.90;;;;;;5039434;28;20521;-48
2023/01/26 05:42:36;;;;;;;101.28;34.60;;;-0.90;99.90;;;;;;5039205;28;20074;-49
2023/01/26 05:45:02;;;;;;;89.13;34.00;;;-0.90;99.90;;;;;;5037475;28;20433;-48
2023/01/26 05:47:27;;;;;;;106.05;34.65;;;-0.90;99.90;;;;;;5050668;28;20048;-50
2023/01/26 05:49:53;;;;;;;102.90;35.38;;;-0.90;99.90;;;;;;5042570;28;20055;-49
2023/01/26 05:52:19;;;;;;;101.80;36.00;;;-0.90;99.90;;;;;;5031257;28;20032;-49
2023/01/26 05:54:45;;;;;;;97.47;32.85;;;-0.90;99.90;;;;;;5030458;28;20482;-51
2023/01/26 05:57:11;;;;;;;95.97;33.60;;;-0.90;99.90;;;;;;5030317;28;20037;-48
2023/01/26 05:59:37;;;;;;;103.20;36.10;;;-0.90;99.90;;;;;;5031100;28;20025;-48
2023/01/26 06:02:03;;;;;;;111.55;35.03;;;-0.90;99.90;;;;;;5030935;28;20029;-49
2023/01/26 06:04:29;;;;;;;111.93;35.28;;;-0.80;99.90;;;;;;5030426;28;20013;-48
2023/01/26 06:06:56;;;;;;;109.10;35.75;;;-0.80;99.90;;;;;;5030286;28;20372;-47
2023/01/26 06:09:22;;;;;;;99.85;35.67;;;-0.80;99.90;;;;;;5030426;28;20063;-49
2023/01/26 06:11:48;;;;;;;97.60;33.20;;;-0.80;99.90;;;;;;5030544;28;20073;-48
2023/01/26 06:14:13;;;;;;;106.60;34.88;;;-0.80;99.90;;;;;;5030365;28;20489;-48
2023/01/26 06:16:39;;;;;;;110.85;35.30;;;-0.80;99.90;;;;;;5030168;28;20180;-51
2023/01/26 06:19:05;;;;;;;89.32;31.75;;;-0.70;99.90;;;;;;5030572;28;20106;-49
2023/01/26 06:21:32;;;;;;;96.65;36.47;;;-0.70;99.90;;;;;;5029327;28;20018;-49
2023/01/26 06:23:58;;;;;;;110.97;36.85;;;-0.70;99.90;;;;;;5033091;28;20025;-49
2023/01/26 06:26:24;;;;;;;99.22;35.47;;;-0.70;99.90;;;;;;5049819;28;20429;-50
2023/01/26 06:28:50;;;;;;;104.85;35.28;;;-0.70;99.90;;;;;;5048658;28;20029;-47
2023/01/26 06:31:16;;;;;;;100.40;33.92;;;-0.70;99.90;;;;;;5050154;28;20638;-48
2023/01/26 06:33:42;;;;;;;111.53;35.92;;;-0.80;99.90;;;;;;5049929;28;20116;-50
2023/01/26 06:36:09;;;;;;;101.13;32.70;;;-0.80;99.90;;;;;;5049213;28;20395;-49
2023/01/26 06:38:36;;;;;;;103.35;33.72;;;-0.70;99.90;;;;;;5049772;28;20068;-48
2023/01/26 06:41:03;;;;;;;107.90;34.80;;;-0.70;99.90;;;;;;5048116;28;20367;-49
2023/01/26 06:43:34;;;;;;;106.60;32.88;;;-0.70;99.90;;;;;;5048584;28;20078;-48
2023/01/26 06:46:01;;;;;;;91.40;30.10;;;-0.70;99.90;;;;;;5049120;28;20021;-48
2023/01/26 06:48:29;;;;;;;91.55;32.20;;;-0.70;99.90;;;;;;5049673;28;20027;-49
2023/01/26 06:50:57;;;;;;;94.05;32.50;;;-0.70;99.90;;;;;;5049366;28;20067;-48
2023/01/26 06:53:33;;;;;;;91.68;31.73;;;-0.80;99.90;;;;;;5049568;28;20382;-47
2023/01/26 06:55:59;;;;;;;93.18;29.77;;;-0.70;99.90;;;;;;5048943;28;20022;-49
2023/01/26 06:58:24;;;;;;;103.25;31.02;;;-0.80;99.90;;;;;;5049552;28;20048;-49
2023/01/26 07:00:51;;;;;;;95.75;30.45;;;-0.80;99.90;;;;;;5044540;28;20436;-47
2023/01/26 07:03:16;;;;;;;99.20;33.25;;;-0.80;99.90;;;;;;5029823;28;20021;-48
2023/01/26 07:05:42;;;;;;;116.55;36.10;;;-0.70;99.90;;;;;;5028960;28;20633;-49
2023/01/26 07:08:07;;;;;;;115.40;36.85;;;-0.70;99.90;;;;;;5029998;28;20030;-49
2023/01/26 07:10:36;;;;;;;114.07;36.28;;;-0.70;99.90;;;;;;5030766;28;20030;-48
2023/01/26 07:13:03;;;;;;;107.07;34.78;;;-0.70;99.90;;;;;;5033468;28;20025;-50
2023/01/26 07:15:29;;;;;;;99.50;33.42;;;-0.70;99.90;;;;;;5042542;28;20112;-48
2023/01/26 07:17:56;;;;;;;108.90;33.50;;;-0.60;99.90;;;;;;5043892;28;20498;-47
2023/01/26 07:20:22;;;;;;;100.45;31.92;;;-0.70;99.90;;;;;;5036501;28;20021;-48
2023/01/26 07:22:48;;;;;;;101.85;31.63;;;-0.60;99.90;;;;;;5030013;28;20032;-49
2023/01/26 07:25:15;;;;;;;98.90;33.60;;;-0.60;99.90;;;;;;5029631;28;20026;-48
2023/01/26 07:27:41;;;;;;;106.85;34.97;;;-0.60;99.90;;;;;;5030421;28;20152;-50
2023/01/26 07:30:07;;;;;;;110.50;34.17;;;-0.60;99.90;;;;;;5029884;28;20737;-50
2023/01/26 07:32:33;;;;;;;106.43;33.58;;;-0.60;99.90;;;;;;5028881;28;20021;-48
2023/01/26 07:34:58;;;;;;;102.40;34.17;;;-0.60;99.90;;;;;;5037387;28;20031;-48
2023/01/26 07:37:27;;;;;;;112.03;35.55;;;-0.50;99.90;;;;;;5037966;28;20074;-48
2023/01/26 07:39:53;;;;;;;101.32;34.45;;;-0.60;99.90;;;;;;5039224;28;20053;-47
2023/01/26 07:42:19;;;;;;;112.85;34.42;;;-0.60;99.90;;;;;;5037524;28;20496;-48
2023/01/26 07:44:44;;;;;;;116.32;35.92;;;-0.60;99.90;;;;;;5032770;28;20017;-47
2023/01/26 07:47:10;;;;;;;107.68;31.98;;;-0.60;99.90;;;;;;5030658;28;20025;-50
2023/01/26 07:49:35;;;;;;;116.63;36.08;;;-0.50;99.90;;;;;;5044989;28;20510;-49
2023/01/26 07:52:01;;;;;;;111.85;36.20;;;-0.50;99.90;;;;;;5047281;28;20090;-48
2023/01/26 07:54:26;;;;;;;107.55;35.10;;;-0.50;99.90;;;;;;5048215;28;20037;-47
2023/01/26 07:56:53;;;;;;;117.60;34.47;;;-0.50;99.90;;;;;;5048294;28;20028;-48
2023/01/26 07:59:19;;;;;;;107.63;35.80;;;-0.50;99.90;;;;;;5048573;28;20104;-48
2023/01/26 08:01:45;;;;;;;109.40;35.53;;;-0.50;99.90;;;;;;5049053;28;20100;-49
2023/01/26 08:04:11;;;;;;;110.20;35.15;;;-0.50;99.90;;;;;;5048540;28;20124;-47
2023/01/26 08:06:36;;;;;;;117.55;39.85;;;-0.50;99.90;;;;;;5047975;28;20017;-47
2023/01/26 08:09:02;;;;;;;119.80;37.22;;;-0.50;99.90;;;;;;5048388;28;20517;-48
2023/01/26 08:11:28;;;;;;;139.45;40.63;;;-0.40;99.90;;;;;;5048617;28;20039;-47
2023/01/26 08:13:54;;;;;;;126.45;39.13;;;-0.50;99.90;;;;;;5045916;28;20121;-49
2023/01/26 08:16:20;;;;;;;104.35;32.03;;;-0.50;99.90;;;;;;5045887;28;20509;-50
2023/01/26 08:18:46;;;;;;;100.30;33.47;;;-0.50;99.90;;;;;;5047282;28;20125;-47
2023/01/26 08:21:14;;;;;;;106.60;33.28;;;-0.40;99.90;;;;;;5048536;28;20154;-48
2023/01/26 08:23:39;;;;;;;92.43;28.75;;;-0.40;99.90;;;;;;5048442;28;20494;-48
2023/01/26 08:26:10;;;;;;;96.68;30.27;;;-0.40;99.90;;;;;;5047982;28;20029;-47
2023/01/26 08:28:36;;;;;;;96.00;29.45;;;-0.40;99.90;;;;;;5048333;28;20028;-51
2023/01/26 08:31:05;;;;;;;87.50;31.15;;;-0.40;99.90;;;;;;5048146;28;20052;-47
2023/01/26 08:33:32;;;;;;;99.47;31.30;;;-0.30;99.90;;;;;;5048397;28;20028;-49
2023/01/26 08:36:06;;;;;;;98.07;30.83;;;-0.30;99.90;;;;;;5048221;28;20264;-49
2023/01/26 08:38:33;;;;;;;94.93;29.45;;;-0.30;99.90;;;;;;5048506;28;20102;-48
2023/01/26 08:40:59;;;;;;;95.88;28.17;;;-0.30;99.90;;;;;;5047078;28;20498;-49
2023/01/26 08:43:25;;;;;;;79.72;27.23;;;-0.20;99.90;;;;;;5046306;28;20052;-48
2023/01/26 08:45:51;;;;;;;94.68;26.80;;;-0.20;99.90;;;;;;5039898;28;20017;-49
2023/01/26 08:48:17;;;;;;;80.22;25.38;;;-0.20;99.90;;;;;;5052240;28;20684;-49
2023/01/26 08:50:43;;;;;;;78.55;25.48;;;-0.20;99.90;;;;;;5052566;28;20371;-51
2023/01/26 08:53:09;;;;;;;73.93;25.75;;;-0.20;99.90;;;;;;5047553;28;20025;-50
2023/01/26 08:55:35;;;;;;;74.68;25.35;;;-0.30;99.90;;;;;;5049215;28;20040;-49
2023/01/26 08:58:00;;;;;;;81.22;26.50;;;-0.20;99.90;;;;;;5044664;28;20032;-51
2023/01/26 09:00:27;;;;;;;83.28;26.58;;;-0.20;99.90;;;;;;5048958;28;20059;-49
2023/01/26 09:03:00;;;;;;;79.15;26.38;;;-0.20;99.90;;;;;;5051140;28;20529;-49
2023/01/26 09:05:27;;;;;;;77.43;25.55;;;-0.10;99.90;;;;;;5043701;28;20021;-49
2023/01/26 09:07:52;;;;;;;75.43;27.75;;;-0.10;99.90;;;;;;5052601;28;20078;-48
2023/01/26 09:10:18;;;;;;;81.20;28.02;;;-0.10;99.90;;;;;;5052504;28;20025;-48
2023/01/26 09:12:43;;;;;;;80.75;26.58;;;-0.10;99.90;;;;;;5052327;28;20501;-48
2023/01/26 09:15:09;;;;;;;82.90;27.02;;;-0.10;99.90;;;;;;5051729;28;20067;-49
2023/01/26 09:17:36;;;;;;;82.95;26.15;;;0.00;99.90;;;;;;5052663;28;20439;-49
2023/01/26 09:20:02;;;;;;;84.68;28.10;;;0.00;99.90;;;;;;5052690;28;20063;-49
2023/01/26 09:22:28;;;;;;;81.97;27.58;;;0.10;99.90;;;;;;5052546;28;20022;-49
2023/01/26 09:24:54;;;;;;;86.53;26.40;;;0.20;99.90;;;;;;5052297;28;20075;-51
2023/01/26 09:27:19;;;;;;;82.80;26.88;;;0.20;99.90;;;;;;5052165;28;20037;-50
2023/01/26 09:29:45;;;;;;;81.40;27.38;;;0.20;99.90;;;;;;5051867;28;20078;-51
2023/01/26 09:32:10;;;;;;;78.53;26.88;;;0.30;99.90;;;;;;5051984;28;20406;-51
2023/01/26 09:34:36;;;;;;;74.88;24.67;;;0.30;99.90;;;;;;5051774;28;20033;-49
2023/01/26 09:37:01;;;;;;;70.82;26.20;;;0.40;99.90;;;;;;5051885;28;20025;-50
2023/01/26 09:39:27;;;;;;;71.40;25.05;;;0.40;99.90;;;;;;5051799;28;20021;-49
2023/01/26 09:42:00;;;;;;;73.75;27.10;;;0.40;99.90;;;;;;5051590;28;20033;-47
2023/01/26 09:44:30;;;;;;;73.68;27.55;;;0.40;99.90;;;;;;5051672;28;20044;-50
2023/01/26 09:47:16;;;;;;;73.10;27.58;;;0.40;99.90;;;;;;5051736;28;20017;-49
2023/01/26 09:49:48;;;;;;;72.40;27.10;;;0.40;99.90;;;;;;5051662;28;20114;-50
2023/01/26 09:52:25;;;;;;;79.47;28.15;;;0.30;99.90;;;;;;5051749;28;20120;-48
2023/01/26 09:54:53;;;;;;;71.75;26.10;;;0.40;99.90;;;;;;5051880;28;20502;-48
2023/01/26 09:57:25;;;;;;;69.32;26.63;;;0.40;99.90;;;;;;5051339;28;20160;-49
2023/01/26 09:59:55;;;;;;;69.47;26.48;;;0.40;99.90;;;;;;5051570;28;20475;-49
2023/01/26 10:02:59;;;;;;;80.50;28.38;;;0.40;99.90;;;;;;5051278;28;20025;-49
2023/01/26 10:05:37;;;;;;;81.18;29.35;;;0.40;99.90;;;;;;5050749;28;20079;-51
2023/01/26 10:08:07;;;;;;;79.25;27.10;;;0.40;99.90;;;;;;5051453;28;20033;-48
2023/01/26 10:10:38;;;;;;;78.30;29.70;;;0.40;99.90;;;;;;5051405;28;20135;-51
2023/01/26 10:13:04;;;;;;;78.25;28.55;;;0.40;99.90;;;;;;5051785;28;20430;-49
2023/01/26 10:15:35;;;;;;;77.90;28.17;;;0.50;99.90;;;;;;5050743;28;20033;-50
2023/01/26 10:18:11;;;;;;;78.50;27.90;;;0.50;99.90;;;;;;5051278;28;20679;-49
2023/01/26 10:20:42;;;;;;;81.00;27.23;;;0.50;99.90;;;;;;5051060;28;20478;-50
2023/01/26 10:23:15;;;;;;;84.72;28.73;;;0.50;99.90;;;;;;5051148;28;20025;-48
2023/01/26 10:25:43;;;;;;;79.15;27.20;;;0.50;99.90;;;;;;5050427;28;20401;-48
2023/01/26 10:28:26;;;;;;;76.45;27.80;;;0.60;99.90;;;;;;5050921;28;20337;-48
2023/01/26 10:30:52;;;;;;;85.45;29.38;;;0.60;99.90;;;;;;5050815;28;20498;-48
2023/01/26 10:33:29;;;;;;;84.18;31.50;;;0.50;99.90;;;;;;5050905;28;20033;-49
2023/01/26 10:35:55;;;;;;;84.97;29.08;;;0.60;99.90;;;;;;5049563;28;20021;-49
2023/01/26 10:38:32;;;;;;;84.70;28.77;;;0.60;99.90;;;;;;5050447;28;20036;-48
2023/01/26 10:41:07;;;;;;;75.25;28.92;;;0.60;99.90;;;;;;5050859;28;20094;-49
2023/01/26 10:43:40;;;;;;;80.00;27.60;;;0.60;99.90;;;;;;5049623;28;20024;-48
2023/01/26 10:46:21;;;;;;;77.50;29.58;;;0.60;99.90;;;;;;5049844;28;20017;-50
2023/01/26 10:48:53;;;;;;;89.32;28.33;;;0.70;99.90;;;;;;5050552;28;20433;-52
2023/01/26 10:51:28;;;;;;;76.20;29.33;;;0.70;99.90;;;;;;5049134;28;20481;-49
2023/01/26 10:54:21;;;;;;;88.93;29.88;;;0.70;99.90;;;;;;5050713;28;20025;-50
2023/01/26 10:56:51;;;;;;;82.03;27.50;;;0.70;99.90;;;;;;5050020;28;20053;-49
2023/01/26 10:59:39;;;;;;;89.28;30.15;;;0.80;99.90;;;;;;5050045;28;20386;-50
2023/01/26 11:02:11;;;;;;;83.50;30.45;;;0.80;99.90;;;;;;5050455;28;20044;-49
2023/01/26 11:04:37;;;;;;;91.20;33.47;;;0.80;99.90;;;;;;5049886;28;20016;-48
2023/01/26 11:07:25;;;;;;;79.68;30.15;;;0.80;99.90;;;;;;5050039;28;20024;-49
2023/01/26 11:09:51;;;;;;;83.80;28.77;;;0.70;99.90;;;;;;5049966;28;20029;-48
2023/01/26 11:12:18;;;;;;;85.68;30.10;;;0.70;99.90;;;;;;5050016;28;20027;-49
2023/01/26 11:15:02;;;;;;;87.93;29.75;;;0.70;99.90;;;;;;5049440;28;20028;-48
2023/01/26 11:17:39;;;;;;;84.72;29.13;;;0.80;99.90;;;;;;5050362;28;20074;-48
2023/01/26 11:20:11;;;;;;;70.95;26.58;;;0.80;99.90;;;;;;5049714;28;20393;-49
2023/01/26 11:22:45;;;;;;;79.43;26.88;;;0.80;99.90;;;;;;5055055;28;20012;-50
2023/01/26 11:25:17;;;;;;;80.13;28.02;;;0.70;99.90;;;;;;5069293;28;20559;-49
2023/01/26 11:27:59;;;;;;;80.03;28.45;;;0.70;99.90;;;;;;5069541;28;20486;-48
2023/01/26 11:30:47;;;;;;;76.78;26.65;;;0.70;99.90;;;;;;5069404;28;20024;-48
2023/01/26 11:33:37;;;;;;;75.10;26.90;;;0.70;99.90;;;;;;5057268;28;20024;-50
2023/01/26 11:36:16;;;;;;;78.60;26.40;;;0.80;99.90;;;;;;5046310;28;20502;-49
2023/01/26 11:38:48;;;;;;;75.20;28.08;;;0.70;99.90;;;;;;5046664;28;20028;-48
2023/01/26 11:41:19;;;;;;;66.65;26.33;;;0.70;99.90;;;;;;5048081;28;20029;-48
2023/01/26 11:44:10;;;;;;;69.72;26.40;;;0.70;99.90;;;;;;5047998;28;20414;-49
2023/01/26 11:47:07;;;;;;;79.90;27.83;;;0.70;99.90;;;;;;5046800;28;20506;-48
2023/01/26 11:49:56;;;;;;;81.82;29.55;;;0.70;99.90;;;;;;5049454;28;20111;-48
2023/01/26 11:52:39;;;;;;;88.30;28.85;;;0.70;99.90;;;;;;5049563;28;20065;-48
2023/01/26 11:55:14;;;;;;;80.72;27.52;;;0.70;99.90;;;;;;5049048;28;20025;-50
2023/01/26 11:58:12;;;;;;;69.20;28.90;;;0.70;99.90;;;;;;5050090;28;20027;-50
2023/01/26 12:01:05;;;;;;;87.45;28.23;;;0.70;99.90;;;;;;5049719;28;20528;-49
2023/01/26 12:03:37;;;;;;;74.90;26.20;;;0.70;99.90;;;;;;5041054;28;20505;-48
2023/01/26 12:06:13;;;;;;;76.78;27.58;;;0.80;99.90;;;;;;5047826;28;20418;-48
2023/01/26 12:08:42;;;;;;;79.13;28.70;;;0.70;99.90;;;;;;5049481;28;20024;-49
2023/01/26 12:11:27;;;;;;;84.38;28.20;;;0.70;99.90;;;;;;5049482;28;20024;-48
2023/01/26 12:14:11;;;;;;;77.28;27.17;;;0.70;99.90;;;;;;5049528;28;20494;-49
2023/01/26 12:17:11;;;;;;;78.68;26.50;;;0.70;99.90;;;;;;5048445;28;20028;-48
2023/01/26 12:19:42;;;;;;;69.07;27.00;;;0.70;99.90;;;;;;5033316;28;20040;-50
2023/01/26 12:22:37;;;;;;;76.50;26.35;;;0.70;99.90;;;;;;5053439;28;20492;-48
2023/01/26 12:25:27;;;;;;;76.70;28.42;;;0.80;99.90;;;;;;5052982;28;20021;-51
2023/01/26 12:28:03;;;;;;;75.20;27.23;;;0.80;99.90;;;;;;5053646;28;20079;-48
2023/01/26 12:31:01;;;;;;;75.57;26.48;;;0.80;99.90;;;;;;5053632;28;20027;-50
2023/01/26 12:33:27;;;;;;;76.00;29.08;;;0.80;99.90;;;;;;5052012;28;20032;-50
2023/01/26 12:36:05;;;;;;;77.25;26.90;;;0.80;99.90;;;;;;5052835;28;20025;-48
2023/01/26 12:38:55;;;;;;;86.80;28.63;;;0.80;99.90;;;;;;5053207;28;20151;-49
2023/01/26 12:42:01;;;;;;;80.13;29.63;;;0.80;99.90;;;;;;5052975;28;20044;-49
2023/01/26 12:44:40;;;;;;;84.18;28.55;;;0.80;99.90;;;;;;5052895;28;20047;-48
2023/01/26 12:47:13;;;;;;;87.25;30.65;;;0.90;99.90;;;;;;5052986;28;20443;-48
2023/01/26 12:50:11;;;;;;;85.43;29.17;;;0.90;99.90;;;;;;5053112;28;20017;-48
2023/01/26 12:52:41;;;;;;;86.72;29.13;;;0.90;99.90;;;;;;5052748;28;20044;-48
2023/01/26 12:55:28;;;;;;;80.75;29.17;;;0.90;99.90;;;;;;5052284;28;20112;-49
2023/01/26 12:58:02;;;;;;;85.72;29.77;;;0.90;99.90;;;;;;5052590;28;20048;-48
2023/01/26 13:00:31;;;;;;;82.13;29.83;;;0.90;99.90;;;;;;5052670;28;20453;-49
2023/01/26 13:03:37;;;;;;;84.65;30.48;;;1.00;99.90;;;;;;5052694;28;20108;-48
2023/01/26 13:06:09;;;;;;;80.68;29.75;;;1.00;99.90;;;;;;4996472;28;20033;-48
2023/01/26 13:08:35;;;;;;;87.53;31.10;;;1.00;99.90;;;;;;5052553;28;20044;-49
2023/01/26 13:11:06;;;;;;;103.20;33.05;;;1.00;99.90;;;;;;5052527;28;20475;-49
2023/01/26 13:14:07;;;;;;;94.68;34.70;;;1.00;99.90;;;;;;5052640;28;20029;-49
2023/01/26 13:16:33;;;;;;;86.05;31.48;;;1.00;99.90;;;;;;4970340;28;20034;-48
2023/01/26 13:19:01;;;;;;;82.63;32.75;;;1.00;99.90;;;;;;5035730;28;20041;-48
2023/01/26 13:21:32;;;;;;;82.75;29.50;;;1.10;99.90;;;;;;5052393;28;20513;-48
2023/01/26 13:23:58;;;;;;;89.22;31.85;;;1.00;99.90;;;;;;5052208;28;20540;-49
2023/01/26 13:26:44;;;;;;;85.18;32.20;;;1.10;99.90;;;;;;5051562;28;20120;-48
2023/01/26 13:29:30;;;;;;;81.60;29.63;;;1.10;99.90;;;;;;5052164;28;20055;-49
2023/01/26 13:32:20;;;;;;;85.25;29.98;;;1.10;99.90;;;;;;5051535;28;20020;-48
2023/01/26 13:34:53;;;;;;;86.50;31.13;;;1.10;99.90;;;;;;5051722;28;20082;-50